createdAt,value
2019-05-01T00:01:33.120Z,41.45
2019-05-01T00:04:45.216Z,41.60
2019-05-01T00:07:46.721Z,49.20
2019-05-01T00:10:48.002Z,54.65
2019-05-01T00:13:49.487Z,57.03
2019-05-01T00:16:50.760Z,57.45
2019-05-01T00:19:52.231Z,47.50
2019-05-01T00:22:53.526Z,62.17
2019-05-01T00:25:54.918Z,70.45
2019-05-01T00:28:56.729Z,45.12
2019-05-01T00:32:01.961Z,37.17
2019-05-01T00:35:06.503Z,35.10
2019-05-01T00:38:07.910Z,35.10
2019-05-01T00:41:09.972Z,49.08
2019-05-01T00:44:11.616Z,45.58
2019-05-01T00:47:12.906Z,67.82
2019-05-01T00:50:14.659Z,39.15
2019-05-01T00:53:16.071Z,36.90
2019-05-01T00:56:19.366Z,35.92
2019-05-01T00:59:22.564Z,41.05
2019-05-01T01:02:31.947Z,43.20
2019-05-01T01:05:33.784Z,74.00
2019-05-01T01:08:35.275Z,79.92
2019-05-01T01:11:36.558Z,58.20
2019-05-01T01:14:38.426Z,77.78
2019-05-01T01:17:39.814Z,104.20
2019-05-01T01:20:41.972Z,90.75
2019-05-01T01:23:43.251Z,52.70
2019-05-01T01:26:44.539Z,45.88
2019-05-01T01:29:45.840Z,87.92
2019-05-01T01:32:47.312Z,45.38
2019-05-01T01:35:48.946Z,44.42
2019-05-01T01:38:50.263Z,58.20
2019-05-01T01:41:52.646Z,38.67
2019-05-01T01:44:56.013Z,70.32
2019-05-01T01:48:11.216Z,72.58
2019-05-01T01:51:12.605Z,44.53
2019-05-01T01:54:13.886Z,57.17
2019-05-01T01:57:15.371Z,69.58
2019-05-01T02:00:18.567Z,52.43
2019-05-01T02:03:21.030Z,68.42
2019-05-01T02:06:22.339Z,103.25
2019-05-01T02:09:23.810Z,98.92
2019-05-01T02:12:25.098Z,87.08
2019-05-01T02:15:26.570Z,85.10
2019-05-01T02:18:27.854Z,108.27
2019-05-01T02:21:29.313Z,65.37
2019-05-01T02:24:30.602Z,97.25
2019-05-01T02:27:36.941Z,114.12
2019-05-01T02:30:40.118Z,52.65
2019-05-01T02:33:42.883Z,90.47
2019-05-01T02:36:45.384Z,63.30
2019-05-01T02:39:46.829Z,121.45
2019-05-01T02:42:48.913Z,85.50
2019-05-01T02:45:53.684Z,74.75
2019-05-01T02:49:01.559Z,126.35
2019-05-01T02:52:03.564Z,84.00
2019-05-01T02:55:07.415Z,106.60
2019-05-01T02:58:08.903Z,114.50
2019-05-01T03:01:14.055Z,119.90
2019-05-01T03:04:13.543Z,95.53
2019-05-01T03:07:15.197Z,65.00
2019-05-01T03:10:16.503Z,102.85
2019-05-01T03:13:18.303Z,70.10
2019-05-01T03:16:19.679Z,55.03
2019-05-01T03:19:35.295Z,99.03
2019-05-01T03:22:44.147Z,58.85
2019-05-01T03:25:46.321Z,161.82
2019-05-01T03:28:47.587Z,107.37
2019-05-01T03:32:14.151Z,120.80
2019-05-01T03:34:53.159Z,189.55
2019-05-01T03:37:54.919Z,150.03
2019-05-01T03:40:56.209Z,80.50
2019-05-01T03:43:58.384Z,69.80
2019-05-01T03:47:00.495Z,83.85
2019-05-01T03:50:01.772Z,93.12
2019-05-01T03:53:03.266Z,69.37
2019-05-01T03:56:04.820Z,63.95
2019-05-01T03:59:06.546Z,79.65
2019-05-01T04:02:09.730Z,81.53
2019-05-01T04:05:11.197Z,62.45
2019-05-01T04:08:12.675Z,71.22
2019-05-01T04:11:14.155Z,157.18
2019-05-01T04:14:15.539Z,182.47
2019-05-01T04:17:22.386Z,150.57
2019-05-01T04:20:23.657Z,125.02
2019-05-01T04:23:25.145Z,140.45
2019-05-01T04:26:26.408Z,117.22
2019-05-01T04:29:29.656Z,125.35
2019-05-01T04:32:50.100Z,116.45
2019-05-01T04:35:49.304Z,92.02
2019-05-01T04:38:51.078Z,83.78
2019-05-01T04:41:52.383Z,77.20
2019-05-01T04:44:53.814Z,62.17
2019-05-01T04:47:55.591Z,70.12
2019-05-01T04:50:57.034Z,63.02
2019-05-01T04:53:58.317Z,62.33
2019-05-01T04:57:00.017Z,60.08
2019-05-01T05:00:03.498Z,58.75
2019-05-01T05:03:07.627Z,53.98
2019-05-01T05:06:08.918Z,60.92
2019-05-01T05:09:10.286Z,56.63
2019-05-01T05:12:16.564Z,55.78
2019-05-01T05:15:22.477Z,144.30
2019-05-01T05:18:24.052Z,65.62
2019-05-01T05:21:25.492Z,35.55
2019-05-01T05:24:26.961Z,40.28
2019-05-01T05:27:28.521Z,34.40
2019-05-01T05:30:29.818Z,27.85
2019-05-01T05:33:31.752Z,28.05
2019-05-01T05:36:33.027Z,24.55
2019-05-01T05:39:45.164Z,27.75
2019-05-01T05:42:47.114Z,29.25
2019-05-01T05:45:48.382Z,32.30
2019-05-01T05:48:49.855Z,30.40
2019-05-01T05:51:59.053Z,27.90
2019-05-01T05:55:02.525Z,28.50
2019-05-01T05:58:05.697Z,29.45
2019-05-01T06:01:24.218Z,30.43
2019-05-01T06:04:27.402Z,27.80
2019-05-01T06:07:33.494Z,27.90
2019-05-01T06:10:39.762Z,31.40
2019-05-01T06:13:56.942Z,30.52
2019-05-01T06:16:57.581Z,33.40
2019-05-01T06:20:03.530Z,34.80
2019-05-01T06:23:15.789Z,27.70
2019-05-01T06:26:26.569Z,27.58
2019-05-01T06:29:30.950Z,31.07
2019-05-01T06:32:33.487Z,28.87
2019-05-01T06:35:38.013Z,29.55
2019-05-01T06:38:38.418Z,29.27
2019-05-01T06:41:42.772Z,30.80
2019-05-01T06:44:54.482Z,27.62
2019-05-01T06:48:03.734Z,26.00
2019-05-01T06:51:23.947Z,26.87
2019-05-01T06:54:25.359Z,27.82
2019-05-01T06:57:27.213Z,21.87
2019-05-01T07:00:28.499Z,19.02
2019-05-01T07:03:30.006Z,21.70
2019-05-01T07:06:32.893Z,18.48
2019-05-01T07:09:34.675Z,22.45
2019-05-01T07:12:35.974Z,20.43
2019-05-01T07:15:37.494Z,21.33
2019-05-01T07:18:38.782Z,20.77
2019-05-01T07:21:40.293Z,19.70
2019-05-01T07:24:41.669Z,17.15
2019-05-01T07:27:43.198Z,18.42
2019-05-01T07:30:50.069Z,17.70
2019-05-01T07:33:52.787Z,17.35
2019-05-01T07:36:54.352Z,19.02
2019-05-01T07:39:56.330Z,20.65
2019-05-01T07:43:05.504Z,16.48
2019-05-01T07:46:13.784Z,20.62
2019-05-01T07:49:19.153Z,17.25
2019-05-01T07:52:20.459Z,14.38
2019-05-01T07:55:37.064Z,14.95
2019-05-01T07:58:38.377Z,14.18
2019-05-01T08:01:41.845Z,14.98
2019-05-01T08:04:43.167Z,14.43
2019-05-01T08:07:44.566Z,12.98
2019-05-01T08:10:46.001Z,16.67
2019-05-01T08:13:47.494Z,13.08
2019-05-01T08:16:48.822Z,11.83
2019-05-01T08:19:52.209Z,19.52
2019-05-01T08:22:53.631Z,13.72
2019-05-01T08:25:55.382Z,14.83
2019-05-01T08:29:05.149Z,11.90
2019-05-01T08:32:22.430Z,12.85
2019-05-01T08:35:25.718Z,13.40
2019-05-01T08:38:29.778Z,13.38
2019-05-01T08:41:31.826Z,12.20
2019-05-01T08:44:41.249Z,12.50
2019-05-01T08:47:47.187Z,14.03
2019-05-01T08:50:48.676Z,13.83
2019-05-01T08:53:52.742Z,11.33
2019-05-01T08:56:58.215Z,9.30
2019-05-01T09:00:00.426Z,13.93
2019-05-01T09:03:20.465Z,11.95
2019-05-01T09:06:34.316Z,10.75
2019-05-01T09:09:25.469Z,13.20
2019-05-01T09:12:26.751Z,10.95
2019-05-01T09:15:28.508Z,14.13
2019-05-01T09:18:29.805Z,16.17
2019-05-01T09:21:33.295Z,9.13
2019-05-01T09:24:35.154Z,12.73
2019-05-01T09:27:41.805Z,12.93
2019-05-01T09:30:44.987Z,9.73
2019-05-01T09:33:46.610Z,8.55
2019-05-01T09:36:47.963Z,9.70
2019-05-01T09:39:49.252Z,8.13
2019-05-01T09:42:54.712Z,10.53
2019-05-01T09:45:55.807Z,11.68
2019-05-01T09:48:57.280Z,11.10
2019-05-01T09:55:45.906Z,8.30
2019-05-01T09:58:47.409Z,10.80
2019-05-01T10:01:49.190Z,10.35
2019-05-01T10:04:50.473Z,8.95
2019-05-01T10:07:51.914Z,9.00
2019-05-01T10:10:53.226Z,14.70
2019-05-01T10:13:58.406Z,8.78
2019-05-01T10:16:57.928Z,9.28
2019-05-01T10:19:59.399Z,7.67
2019-05-01T10:23:00.689Z,7.15
2019-05-01T10:26:04.149Z,10.00
2019-05-01T10:29:25.903Z,7.67
2019-05-01T10:32:29.318Z,10.10
2019-05-01T10:35:43.087Z,9.60
2019-05-01T10:38:45.090Z,8.40
2019-05-01T10:41:46.442Z,9.43
2019-05-01T10:44:49.383Z,7.03
2019-05-01T10:47:50.770Z,7.85
2019-05-01T10:50:52.336Z,7.75
2019-05-01T10:53:53.912Z,10.68
2019-05-01T10:56:58.841Z,9.95
2019-05-01T10:59:59.360Z,7.00
2019-05-01T11:03:00.931Z,9.45
2019-05-01T11:06:02.311Z,9.63
2019-05-01T11:09:05.171Z,8.83
2019-05-01T11:12:06.578Z,7.30
2019-05-01T11:15:08.168Z,9.65
2019-05-01T11:18:09.590Z,9.38
2019-05-01T11:21:11.147Z,8.43
2019-05-01T11:24:12.477Z,6.95
2019-05-01T11:27:14.005Z,8.08
2019-05-01T11:30:15.369Z,11.57
2019-05-01T11:33:23.827Z,6.55
2019-05-01T11:36:29.511Z,11.25
2019-05-01T11:39:42.570Z,6.05
2019-05-01T11:42:43.885Z,11.45
2019-05-01T11:45:46.517Z,9.18
2019-05-01T11:49:07.674Z,11.55
2019-05-01T11:52:09.372Z,7.83
2019-05-01T11:55:10.846Z,9.33
2019-05-01T11:58:12.334Z,5.20
2019-05-01T12:01:15.617Z,9.23
2019-05-01T12:04:18.163Z,5.40
2019-05-01T12:07:19.556Z,8.30
2019-05-01T12:10:21.109Z,6.50
2019-05-01T12:13:22.640Z,5.70
2019-05-01T12:16:25.816Z,6.12
2019-05-01T12:19:29.148Z,6.85
2019-05-01T12:22:30.454Z,9.10
2019-05-01T12:25:31.942Z,5.65
2019-05-01T12:28:33.218Z,8.85
2019-05-01T12:31:34.590Z,6.37
2019-05-01T12:34:35.830Z,11.53
2019-05-01T12:37:41.415Z,7.05
2019-05-01T12:40:44.714Z,9.33
2019-05-01T12:43:46.247Z,8.50
2019-05-01T12:46:50.163Z,10.05
2019-05-01T12:49:53.345Z,7.25
2019-05-01T12:53:12.218Z,7.95
2019-05-01T12:56:15.437Z,9.28
2019-05-01T12:59:17.029Z,11.22
2019-05-01T13:02:18.338Z,7.92
2019-05-01T13:05:19.765Z,10.65
2019-05-01T13:08:21.248Z,7.22
2019-05-01T13:11:22.626Z,10.55
2019-05-01T13:14:24.126Z,7.22
2019-05-01T13:17:25.399Z,8.95
2019-05-01T13:20:26.697Z,7.75
2019-05-01T13:23:28.021Z,9.75
2019-05-01T13:26:34.217Z,12.30
2019-05-01T13:29:40.457Z,13.48
2019-05-01T13:32:46.820Z,11.83
2019-05-01T13:35:48.461Z,12.07
2019-05-01T13:38:49.942Z,16.77
2019-05-01T13:41:51.235Z,11.85
2019-05-01T13:44:53.126Z,14.93
2019-05-01T13:47:54.894Z,20.65
2019-05-01T13:50:56.599Z,13.45
2019-05-01T13:53:59.866Z,12.50
2019-05-01T13:57:01.784Z,9.55
2019-05-01T14:00:06.558Z,16.02
2019-05-01T14:03:07.970Z,37.53
2019-05-01T14:06:09.622Z,41.13
2019-05-01T14:09:12.830Z,18.30
2019-05-01T14:12:14.149Z,15.80
2019-05-01T14:15:15.549Z,14.87
2019-05-01T14:18:17.318Z,15.10
2019-05-01T14:21:20.625Z,14.70
2019-05-01T14:24:26.786Z,16.35
2019-05-01T14:27:28.564Z,12.50
2019-05-01T14:30:30.065Z,22.95
2019-05-01T14:33:31.452Z,13.22
2019-05-01T14:36:33.238Z,12.40
2019-05-01T14:39:34.566Z,15.05
2019-05-01T14:42:36.458Z,12.07
2019-05-01T14:49:03.058Z,13.18
2019-05-01T14:52:04.359Z,15.25
2019-05-01T14:55:06.761Z,16.82
2019-05-01T14:58:08.730Z,16.23
2019-05-01T15:01:10.309Z,15.10
2019-05-01T15:04:11.739Z,18.10
2019-05-01T15:07:13.176Z,11.10
2019-05-01T15:10:14.678Z,10.65
2019-05-01T15:13:34.571Z,9.85
2019-05-01T15:16:37.883Z,10.38
2019-05-01T15:19:43.978Z,9.05
2019-05-01T15:22:45.377Z,9.90
2019-05-01T15:25:46.986Z,10.38
2019-05-01T15:28:48.384Z,11.88
2019-05-01T15:31:49.958Z,16.52
2019-05-01T15:34:51.344Z,12.55
2019-05-01T15:37:56.842Z,10.58
2019-05-01T15:41:00.551Z,14.65
2019-05-01T15:44:05.146Z,12.80
2019-05-01T15:47:06.492Z,17.07
2019-05-01T15:50:08.742Z,12.82
2019-05-01T15:53:10.030Z,13.20
2019-05-01T15:56:12.362Z,17.70
2019-05-01T15:59:13.641Z,22.93
2019-05-01T16:02:15.122Z,11.80
2019-05-01T16:05:17.162Z,51.20
2019-05-01T16:08:18.479Z,70.52
2019-05-01T16:11:38.237Z,43.75
2019-05-01T16:14:39.959Z,17.15
2019-05-01T16:17:41.273Z,10.30
2019-05-01T16:20:43.038Z,10.75
2019-05-01T16:23:44.303Z,11.12
2019-05-01T16:26:46.048Z,12.23
2019-05-01T16:29:47.458Z,10.88
2019-05-01T16:32:50.116Z,11.57
2019-05-01T16:35:52.802Z,12.50
2019-05-01T16:39:01.861Z,14.20
2019-05-01T16:42:03.603Z,12.70
2019-05-01T16:45:06.455Z,16.97
2019-05-01T16:48:07.958Z,12.55
2019-05-01T16:51:09.265Z,20.37
2019-05-01T16:54:13.835Z,27.70
2019-05-01T16:57:15.321Z,45.85
2019-05-01T17:00:21.776Z,44.30
2019-05-01T17:03:27.859Z,29.10
2019-05-01T17:06:40.448Z,32.88
2019-05-01T17:10:00.629Z,30.72
2019-05-01T17:13:04.834Z,26.33
2019-05-01T17:16:06.799Z,32.33
2019-05-01T17:19:08.654Z,27.07
2019-05-01T17:22:14.442Z,24.02
2019-05-01T17:25:13.386Z,26.37
2019-05-01T17:28:14.713Z,30.45
2019-05-01T17:31:16.168Z,29.45
2019-05-01T17:34:18.079Z,35.28
2019-05-01T17:37:21.737Z,31.62
2019-05-01T17:40:23.211Z,29.87
2019-05-01T17:43:24.952Z,25.05
2019-05-01T17:46:26.841Z,29.37
2019-05-01T17:49:29.287Z,26.77
2019-05-01T17:52:30.597Z,27.70
2019-05-01T17:55:32.422Z,30.25
2019-05-01T17:58:33.715Z,30.77
2019-05-01T18:01:41.492Z,28.00
2019-05-01T18:04:50.363Z,29.35
2019-05-01T18:07:56.709Z,23.65
2019-05-01T18:10:59.880Z,25.85
2019-05-01T18:14:01.407Z,28.45
2019-05-01T18:17:03.144Z,30.32
2019-05-01T18:20:04.832Z,30.45
2019-05-01T18:23:24.866Z,37.58
2019-05-01T18:26:43.195Z,33.38
2019-05-01T18:29:44.718Z,37.00
2019-05-01T18:32:49.409Z,38.85
2019-05-01T18:35:50.521Z,35.70
2019-05-01T18:38:59.665Z,36.00
2019-05-01T18:42:03.336Z,38.28
2019-05-01T18:45:09.591Z,36.88
2019-05-01T18:48:10.860Z,38.67
2019-05-01T18:51:12.811Z,42.20
2019-05-01T18:54:14.359Z,42.23
2019-05-01T19:09:30.126Z,49.83
2019-05-01T19:12:31.474Z,60.50
2019-05-01T19:23:40.680Z,93.65
2019-05-01T19:26:42.615Z,88.90
2019-05-01T19:29:45.210Z,107.32
2019-05-01T19:32:47.993Z,111.80
2019-05-01T19:35:50.803Z,103.75
2019-05-01T19:38:52.014Z,91.12
2019-05-01T19:41:54.651Z,103.90
2019-05-01T19:44:58.080Z,94.58
2019-05-01T19:47:59.358Z,91.25
2019-05-01T19:51:00.870Z,83.30
2019-05-01T19:54:02.449Z,82.12
2019-05-01T19:57:03.877Z,76.33
2019-05-01T20:00:07.237Z,69.20
2019-05-01T20:03:08.653Z,72.42
2019-05-01T20:06:10.159Z,50.55
2019-05-01T20:09:11.443Z,55.73
2019-05-01T20:12:12.773Z,58.87
2019-05-01T20:15:14.166Z,58.83
2019-05-01T20:18:15.719Z,56.02
2019-05-01T20:21:17.163Z,51.60
2019-05-01T20:24:19.304Z,44.98
2019-05-01T20:27:20.950Z,54.15
2019-05-01T20:30:22.560Z,53.42
2019-05-01T20:33:23.847Z,44.83
2019-05-01T20:36:26.209Z,46.80
2019-05-01T20:39:27.497Z,46.58
2019-05-01T20:42:29.326Z,47.80
2019-05-01T20:45:30.856Z,47.08
2019-05-01T20:48:32.330Z,43.05
2019-05-01T20:51:33.990Z,44.27
2019-05-01T20:54:35.400Z,48.40
2019-05-01T20:57:49.753Z,47.05
2019-05-01T21:00:54.726Z,33.58
2019-05-01T21:03:58.087Z,38.58
2019-05-01T21:07:10.511Z,40.25
2019-05-01T21:10:24.279Z,39.10
2019-05-01T21:13:17.834Z,35.38
2019-05-01T21:16:19.010Z,30.08
2019-05-01T21:19:20.434Z,29.12
2019-05-01T21:22:23.446Z,29.70
2019-05-01T21:25:26.885Z,28.80
2019-05-01T21:28:29.040Z,25.27
2019-05-01T21:31:30.495Z,28.62
2019-05-01T21:34:33.360Z,30.55
2019-05-01T21:37:35.128Z,27.75
2019-05-01T21:40:41.028Z,27.73
2019-05-01T21:43:42.486Z,28.75
2019-05-01T21:46:43.942Z,29.15
2019-05-01T21:49:45.954Z,27.45
2019-05-01T21:52:47.454Z,30.15
2019-05-01T21:55:48.758Z,25.55
2019-05-01T21:58:50.297Z,24.23
2019-05-01T22:01:52.328Z,25.68
2019-05-01T22:04:53.875Z,25.35
2019-05-01T22:07:58.642Z,28.02
2019-05-01T22:11:01.871Z,29.42
2019-05-01T22:14:03.890Z,24.00
2019-05-01T22:17:07.133Z,27.85
2019-05-01T22:20:10.653Z,23.00
2019-05-01T22:23:17.024Z,22.00
2019-05-01T22:26:17.534Z,25.05
2019-05-01T22:29:27.288Z,27.22
2019-05-01T22:32:32.280Z,28.05
2019-05-01T22:35:36.610Z,27.87
2019-05-01T22:38:38.198Z,24.50
2019-05-01T22:41:39.497Z,26.75
2019-05-01T22:44:40.988Z,24.00
2019-05-01T22:47:45.953Z,23.20
2019-05-01T22:50:46.849Z,28.07
2019-05-01T22:53:50.152Z,28.75
2019-05-01T22:56:51.857Z,29.12
2019-05-01T22:59:53.237Z,24.67
2019-05-01T23:02:55.073Z,28.52
2019-05-01T23:05:56.350Z,24.30
2019-05-01T23:08:57.877Z,25.50
2019-05-01T23:11:59.350Z,29.20
2019-05-01T23:15:00.783Z,25.00
2019-05-01T23:18:02.178Z,26.15
2019-05-01T23:21:03.942Z,25.62
2019-05-01T23:24:05.314Z,26.05
2019-05-01T23:27:06.861Z,25.32
2019-05-01T23:30:10.137Z,22.35
2019-05-01T23:33:11.778Z,24.67
2019-05-01T23:36:23.338Z,29.67
2019-05-01T23:39:16.381Z,24.77
2019-05-01T23:42:17.696Z,24.43
2019-05-01T23:45:19.207Z,28.00
2019-05-01T23:48:20.469Z,26.62
2019-05-01T23:51:23.675Z,30.35
2019-05-01T23:54:25.045Z,32.50
2019-05-01T23:57:26.633Z,23.02
